Sovereign — 9HUE9 — position and weather

sailwx.info

Track history (hours):
 
Tides and Currents Weather Stations Pressure Air Temp Water Temp Dewpoint Dewpoint Depression Visibility Wind Speed Wind Dir Waves Ship Positions

Sovereign

Last reported at 2015-Mar-05 01:11 UTC. Time now 2015-Mar-05 14:39 UTC.
Position S 14°53' W 038°32'.

Length 268 m; draft 7.8 m.

Type: Passenger vessel. MMSI: 249539000.

Date/timePositionNaut miles runAvg speedWind from/ knotsBaromVisibWave heightAir tempDewpointWater temp
2015-Mar-05 01:11S 14°53' W 038°32'9717.2
2015-Mar-04 19:31S 13°15' W 038°35'1616.4
2015-Mar-04 18:33S 12°60' W 038°33'3 2.6
2015-Mar-04 17:31S 12°58' W 038°31'0 0.0
2015-Mar-04 16:31S 12°58' W 038°31'0 0.0
2015-Mar-04 15:31S 12°58' W 038°31'0 0.0
2015-Mar-04 14:31S 12°58' W 038°31'0 0.0
2015-Mar-04 13:31S 12°58' W 038°31'0 0.0
2015-Mar-04 12:31S 12°58' W 038°31'0 0.0
2015-Mar-04 11:31S 12°58' W 038°31'0 0.0
2015-Mar-04 10:31S 12°58' W 038°31'0 0.0
2015-Mar-04 09:31S 12°58' W 038°31'0 0.0
2015-Mar-04 08:31S 12°58' W 038°31'0 0.0
2015-Mar-04 07:31S 12°58' W 038°31'0 0.0
2015-Mar-04 06:31S 12°58' W 038°31'0 0.0
2015-Mar-04 05:28S 12°58' W 038°31'0 0.0
2015-Mar-04 04:31S 12°58' W 038°31'0 0.0
2015-Mar-04 03:31S 12°58' W 038°31'0 0.0
2015-Mar-04 02:31S 12°58' W 038°31'0 0.0
2015-Mar-04 01:31S 12°58' W 038°31'0 0.0
2015-Mar-04 00:31S 12°58' W 038°31'0 0.0
2015-Mar-03 23:31S 12°58' W 038°31'0 0.0
2015-Mar-03 22:31S 12°58' W 038°31'0 0.0
2015-Mar-03 21:31S 12°58' W 038°31'0 0.0
2015-Mar-03 20:31S 12°58' W 038°31'0 0.0
2015-Mar-03 19:31S 12°58' W 038°31'0 0.0
2015-Mar-03 18:31S 12°58' W 038°31'0 0.0
2015-Mar-03 17:31S 12°58' W 038°31'2 2.0
2015-Mar-03 16:34S 12°59' W 038°33'  
2015-Feb-28 22:11S 24°03' W 046°05'1113.8
2015-Feb-28 21:21S 24°04' W 046°18'5 6.1
2015-Feb-28 20:33S 23°59' W 046°17'2 1.1
2015-Feb-28 18:29S 23°57' W 046°19'0 0.0
2015-Feb-28 17:17S 23°57' W 046°19'0 0.0
2015-Feb-28 16:29S 23°57' W 046°19'0 0.0
2015-Feb-28 15:32S 23°57' W 046°19'0 0.0
2015-Feb-28 14:32S 23°57' W 046°19'0 0.0
2015-Feb-28 13:34S 23°57' W 046°19'0 0.0
2015-Feb-28 12:34S 23°57' W 046°19'1 1.5
2015-Feb-28 11:34S 23°58' W 046°18'7 6.5
2015-Feb-28 10:32S 24°04' W 046°15'  
2015-Feb-25 19:33S 13°12' W 038°34'1414.4
2015-Feb-25 18:33S 12°58' W 038°31'1 0.5
2015-Feb-25 17:33S 12°58' W 038°31'0 0.0
2015-Feb-25 16:30S 12°58' W 038°31'0 0.0
2015-Feb-25 15:33S 12°58' W 038°31'0 0.0
2015-Feb-25 14:33S 12°58' W 038°31'0 0.0
2015-Feb-25 13:33S 12°58' W 038°31'0 0.0
2015-Feb-25 12:33S 12°58' W 038°31'0 0.0
2015-Feb-25 11:33S 12°58' W 038°31'0 0.0
2015-Feb-25 10:33S 12°58' W 038°31'0 0.0
2015-Feb-25 09:33S 12°58' W 038°31'0 0.0
2015-Feb-25 08:33S 12°58' W 038°31'0 0.0
2015-Feb-25 07:33S 12°58' W 038°31'0 0.0
2015-Feb-25 06:33S 12°58' W 038°31'0 0.0
2015-Feb-25 05:33S 12°58' W 038°31'0 0.0
2015-Feb-25 04:33S 12°58' W 038°31'0 0.0
2015-Feb-25 03:33S 12°58' W 038°31'0 0.0
2015-Feb-25 02:33S 12°58' W 038°31'0 0.0
2015-Feb-25 01:33S 12°58' W 038°31'0 0.0
2015-Feb-25 00:33S 12°58' W 038°31'0 0.0
2015-Feb-24 23:33S 12°58' W 038°31'0 0.0
2015-Feb-24 22:33S 12°58' W 038°31'0 0.0
2015-Feb-24 21:33S 12°58' W 038°31'0 0.0
2015-Feb-24 20:33S 12°58' W 038°31'0 0.0
2015-Feb-24 19:33S 12°58' W 038°31'0 0.0
2015-Feb-24 18:33S 12°58' W 038°31'0 0.0
2015-Feb-24 17:33S 12°58' W 038°31'3 2.5
2015-Feb-24 16:34S 12°59' W 038°33'  
Track history (hours):
 
Tides and Currents Weather Stations Pressure Air Temp Water Temp Dewpoint Dewpoint Depression Visibility Wind Speed Wind Dir Waves Ship Positions

Sovereign

Last reported at 2015-Mar-05 01:11 UTC. Time now 2015-Mar-05 14:39 UTC.
Position S 14°53' W 038°32'.

Length 268 m; draft 7.8 m.

Type: Passenger vessel. MMSI: 249539000.

Date/timePositionNaut miles runAvg speedWind from/ knotsBaromVisibWave heightAir tempDewpointWater temp
2015-Mar-05 01:11S 14°53' W 038°32'9717.2
2015-Mar-04 19:31S 13°15' W 038°35'1616.4
2015-Mar-04 18:33S 12°60' W 038°33'3 2.6
2015-Mar-04 17:31S 12°58' W 038°31'0 0.0
2015-Mar-04 16:31S 12°58' W 038°31'0 0.0
2015-Mar-04 15:31S 12°58' W 038°31'0 0.0
2015-Mar-04 14:31S 12°58' W 038°31'0 0.0
2015-Mar-04 13:31S 12°58' W 038°31'0 0.0
2015-Mar-04 12:31S 12°58' W 038°31'0 0.0
2015-Mar-04 11:31S 12°58' W 038°31'0 0.0
2015-Mar-04 10:31S 12°58' W 038°31'0 0.0
2015-Mar-04 09:31S 12°58' W 038°31'0 0.0
2015-Mar-04 08:31S 12°58' W 038°31'0 0.0
2015-Mar-04 07:31S 12°58' W 038°31'0 0.0
2015-Mar-04 06:31S 12°58' W 038°31'0 0.0
2015-Mar-04 05:28S 12°58' W 038°31'0 0.0
2015-Mar-04 04:31S 12°58' W 038°31'0 0.0
2015-Mar-04 03:31S 12°58' W 038°31'0 0.0
2015-Mar-04 02:31S 12°58' W 038°31'0 0.0
2015-Mar-04 01:31S 12°58' W 038°31'0 0.0
2015-Mar-04 00:31S 12°58' W 038°31'0 0.0
2015-Mar-03 23:31S 12°58' W 038°31'0 0.0
2015-Mar-03 22:31S 12°58' W 038°31'0 0.0
2015-Mar-03 21:31S 12°58' W 038°31'0 0.0
2015-Mar-03 20:31S 12°58' W 038°31'0 0.0
2015-Mar-03 19:31S 12°58' W 038°31'0 0.0
2015-Mar-03 18:31S 12°58' W 038°31'0 0.0
2015-Mar-03 17:31S 12°58' W 038°31'2 2.0
2015-Mar-03 16:34S 12°59' W 038°33'  
2015-Feb-28 22:11S 24°03' W 046°05'1113.8
2015-Feb-28 21:21S 24°04' W 046°18'5 6.1
2015-Feb-28 20:33S 23°59' W 046°17'2 1.1
2015-Feb-28 18:29S 23°57' W 046°19'0 0.0
2015-Feb-28 17:17S 23°57' W 046°19'0 0.0
2015-Feb-28 16:29S 23°57' W 046°19'0 0.0
2015-Feb-28 15:32S 23°57' W 046°19'0 0.0
2015-Feb-28 14:32S 23°57' W 046°19'0 0.0
2015-Feb-28 13:34S 23°57' W 046°19'0 0.0
2015-Feb-28 12:34S 23°57' W 046°19'1 1.5
2015-Feb-28 11:34S 23°58' W 046°18'7 6.5
2015-Feb-28 10:32S 24°04' W 046°15'  
2015-Feb-25 19:33S 13°12' W 038°34'1414.4
2015-Feb-25 18:33S 12°58' W 038°31'1 0.5
2015-Feb-25 17:33S 12°58' W 038°31'0 0.0
2015-Feb-25 16:30S 12°58' W 038°31'0 0.0
2015-Feb-25 15:33S 12°58' W 038°31'0 0.0
2015-Feb-25 14:33S 12°58' W 038°31'0 0.0
2015-Feb-25 13:33S 12°58' W 038°31'0 0.0
2015-Feb-25 12:33S 12°58' W 038°31'0 0.0
2015-Feb-25 11:33S 12°58' W 038°31'0 0.0
2015-Feb-25 10:33S 12°58' W 038°31'0 0.0
2015-Feb-25 09:33S 12°58' W 038°31'0 0.0
2015-Feb-25 08:33S 12°58' W 038°31'0 0.0
2015-Feb-25 07:33S 12°58' W 038°31'0 0.0
2015-Feb-25 06:33S 12°58' W 038°31'0 0.0
2015-Feb-25 05:33S 12°58' W 038°31'0 0.0
2015-Feb-25 04:33S 12°58' W 038°31'0 0.0
2015-Feb-25 03:33S 12°58' W 038°31'0 0.0
2015-Feb-25 02:33S 12°58' W 038°31'0 0.0
2015-Feb-25 01:33S 12°58' W 038°31'0 0.0
2015-Feb-25 00:33S 12°58' W 038°31'0 0.0
2015-Feb-24 23:33S 12°58' W 038°31'0 0.0
2015-Feb-24 22:33S 12°58' W 038°31'0 0.0
2015-Feb-24 21:33S 12°58' W 038°31'0 0.0
2015-Feb-24 20:33S 12°58' W 038°31'0 0.0
2015-Feb-24 19:33S 12°58' W 038°31'0 0.0
2015-Feb-24 18:33S 12°58' W 038°31'0 0.0
2015-Feb-24 17:33S 12°58' W 038°31'3 2.5
2015-Feb-24 16:34S 12°59' W 038°33'  

Dump ship's entire track history